sensor_id;sensor_type;location;lat;lon;timestamp;temperature;humidity
17174;DHT22;8702;48.130;-1.696;2023-04-19T00:02:08;10.60;99.90
17174;DHT22;8702;48.130;-1.696;2023-04-19T00:04:35;10.50;99.90
17174;DHT22;8702;48.130;-1.696;2023-04-19T00:07:04;10.60;99.90
17174;DHT22;8702;48.130;-1.696;2023-04-19T00:09:31;10.60;99.90
17174;DHT22;8702;48.130;-1.696;2023-04-19T00:11:58;10.60;99.90
17174;DHT22;8702;48.130;-1.696;2023-04-19T00:14:26;10.60;99.90
17174;DHT22;8702;48.130;-1.696;2023-04-19T00:16:56;10.60;99.90
17174;DHT22;8702;48.130;-1.696;2023-04-19T00:19:27;10.60;99.90
17174;DHT22;8702;48.130;-1.696;2023-04-19T00:21:55;10.60;99.90
17174;DHT22;8702;48.130;-1.696;2023-04-19T00:24:22;10.60;99.90
17174;DHT22;8702;48.130;-1.696;2023-04-19T00:26:53;10.60;99.90
17174;DHT22;8702;48.130;-1.696;2023-04-19T00:29:21;10.60;99.90
17174;DHT22;8702;48.130;-1.696;2023-04-19T00:31:49;10.60;99.90
17174;DHT22;8702;48.130;-1.696;2023-04-19T00:34:18;10.60;99.90
17174;DHT22;8702;48.130;-1.696;2023-04-19T00:36:47;10.70;99.90
17174;DHT22;8702;48.130;-1.696;2023-04-19T00:39:15;10.70;99.90
17174;DHT22;8702;48.130;-1.696;2023-04-19T00:41:42;10.70;99.90
17174;DHT22;8702;48.130;-1.696;2023-04-19T00:44:09;10.70;99.90
17174;DHT22;8702;48.130;-1.696;2023-04-19T00:46:37;10.70;99.90
17174;DHT22;8702;48.130;-1.696;2023-04-19T00:49:05;10.70;99.90
17174;DHT22;8702;48.130;-1.696;2023-04-19T00:51:32;10.70;99.90
17174;DHT22;8702;48.130;-1.696;2023-04-19T00:54:01;10.80;99.90
17174;DHT22;8702;48.130;-1.696;2023-04-19T00:56:32;10.80;99.90
17174;DHT22;8702;48.130;-1.696;2023-04-19T00:59:02;10.80;99.90
17174;DHT22;8702;48.130;-1.696;2023-04-19T01:01:31;10.80;99.90
17174;DHT22;8702;48.130;-1.696;2023-04-19T01:03:59;10.80;99.90
17174;DHT22;8702;48.130;-1.696;2023-04-19T01:06:27;10.90;99.90
17174;DHT22;8702;48.130;-1.696;2023-04-19T01:08:58;10.80;99.90
17174;DHT22;8702;48.130;-1.696;2023-04-19T01:11:27;10.80;99.90
17174;DHT22;8702;48.130;-1.696;2023-04-19T01:13:54;10.80;99.90
17174;DHT22;8702;48.130;-1.696;2023-04-19T01:16:24;10.90;99.90
17174;DHT22;8702;48.130;-1.696;2023-04-19T01:18:52;10.90;99.90
17174;DHT22;8702;48.130;-1.696;2023-04-19T01:21:22;10.80;99.90
17174;DHT22;8702;48.130;-1.696;2023-04-19T01:23:53;10.80;99.90
17174;DHT22;8702;48.130;-1.696;2023-04-19T01:26:20;10.80;99.90
17174;DHT22;8702;48.130;-1.696;2023-04-19T01:28:51;10.90;99.90
17174;DHT22;8702;48.130;-1.696;2023-04-19T01:31:18;11.00;99.90
17174;DHT22;8702;48.130;-1.696;2023-04-19T01:33:48;11.00;99.90
17174;DHT22;8702;48.130;-1.696;2023-04-19T01:36:20;10.90;99.90
17174;DHT22;8702;48.130;-1.696;2023-04-19T01:38:51;11.00;99.90
17174;DHT22;8702;48.130;-1.696;2023-04-19T01:41:19;10.90;99.90
17174;DHT22;8702;48.130;-1.696;2023-04-19T01:43:47;10.90;99.90
17174;DHT22;8702;48.130;-1.696;2023-04-19T01:46:15;10.90;99.90
17174;DHT22;8702;48.130;-1.696;2023-04-19T01:48:43;10.80;99.90
17174;DHT22;8702;48.130;-1.696;2023-04-19T01:51:11;10.80;99.90
17174;DHT22;8702;48.130;-1.696;2023-04-19T01:53:39;10.80;99.90
17174;DHT22;8702;48.130;-1.696;2023-04-19T01:56:09;10.70;99.90
17174;DHT22;8702;48.130;-1.696;2023-04-19T01:58:36;10.70;99.90
17174;DHT22;8702;48.130;-1.696;2023-04-19T02:01:03;10.60;99.90
17174;DHT22;8702;48.130;-1.696;2023-04-19T02:03:30;10.60;99.90
17174;DHT22;8702;48.130;-1.696;2023-04-19T02:05:57;10.60;99.90
17174;DHT22;8702;48.130;-1.696;2023-04-19T02:08:25;10.70;99.90
17174;DHT22;8702;48.130;-1.696;2023-04-19T02:10:52;10.70;99.90
17174;DHT22;8702;48.130;-1.696;2023-04-19T02:13:21;10.70;99.90
17174;DHT22;8702;48.130;-1.696;2023-04-19T02:15:48;10.60;99.90
17174;DHT22;8702;48.130;-1.696;2023-04-19T02:18:15;10.60;99.90
17174;DHT22;8702;48.130;-1.696;2023-04-19T02:20:46;10.50;99.90
17174;DHT22;8702;48.130;-1.696;2023-04-19T02:23:13;10.50;99.90
17174;DHT22;8702;48.130;-1.696;2023-04-19T02:25:40;10.50;99.90
17174;DHT22;8702;48.130;-1.696;2023-04-19T02:28:07;10.50;99.90
17174;DHT22;8702;48.130;-1.696;2023-04-19T02:30:37;10.40;99.90
17174;DHT22;8702;48.130;-1.696;2023-04-19T02:33:04;10.40;99.90
17174;DHT22;8702;48.130;-1.696;2023-04-19T02:35:31;10.40;99.90
17174;DHT22;8702;48.130;-1.696;2023-04-19T02:37:58;10.40;99.90
17174;DHT22;8702;48.130;-1.696;2023-04-19T02:40:26;10.30;99.90
17174;DHT22;8702;48.130;-1.696;2023-04-19T02:42:53;10.30;99.90
17174;DHT22;8702;48.130;-1.696;2023-04-19T02:45:20;10.30;99.90
17174;DHT22;8702;48.130;-1.696;2023-04-19T02:47:48;10.30;99.90
17174;DHT22;8702;48.130;-1.696;2023-04-19T02:50:18;10.30;99.90
17174;DHT22;8702;48.130;-1.696;2023-04-19T02:52:45;10.30;99.90
17174;DHT22;8702;48.130;-1.696;2023-04-19T02:55:13;10.30;99.90
17174;DHT22;8702;48.130;-1.696;2023-04-19T02:57:47;10.20;99.90
17174;DHT22;8702;48.130;-1.696;2023-04-19T03:00:15;10.30;99.90
17174;DHT22;8702;48.130;-1.696;2023-04-19T03:02:43;10.20;99.90
17174;DHT22;8702;48.130;-1.696;2023-04-19T03:05:15;10.20;99.90
17174;DHT22;8702;48.130;-1.696;2023-04-19T03:07:41;10.20;99.90
17174;DHT22;8702;48.130;-1.696;2023-04-19T03:10:09;10.00;99.90
17174;DHT22;8702;48.130;-1.696;2023-04-19T03:12:37;10.10;99.90
17174;DHT22;8702;48.130;-1.696;2023-04-19T03:15:07;10.10;99.90
17174;DHT22;8702;48.130;-1.696;2023-04-19T03:17:44;10.00;99.90
17174;DHT22;8702;48.130;-1.696;2023-04-19T03:20:13;10.00;99.90
17174;DHT22;8702;48.130;-1.696;2023-04-19T03:22:41;9.70;99.90
17174;DHT22;8702;48.130;-1.696;2023-04-19T03:25:09;9.80;99.90
17174;DHT22;8702;48.130;-1.696;2023-04-19T03:27:38;9.80;99.90
17174;DHT22;8702;48.130;-1.696;2023-04-19T03:30:06;9.80;99.90
17174;DHT22;8702;48.130;-1.696;2023-04-19T03:32:33;9.90;99.90
17174;DHT22;8702;48.130;-1.696;2023-04-19T03:35:00;9.90;99.90
17174;DHT22;8702;48.130;-1.696;2023-04-19T03:37:29;9.90;99.90
17174;DHT22;8702;48.130;-1.696;2023-04-19T03:39:56;10.00;99.90
17174;DHT22;8702;48.130;-1.696;2023-04-19T03:42:23;9.90;99.90
17174;DHT22;8702;48.130;-1.696;2023-04-19T03:44:50;9.90;99.90
17174;DHT22;8702;48.130;-1.696;2023-04-19T03:47:17;10.00;99.90
17174;DHT22;8702;48.130;-1.696;2023-04-19T03:49:44;10.00;99.90
17174;DHT22;8702;48.130;-1.696;2023-04-19T03:52:12;10.00;99.90
17174;DHT22;8702;48.130;-1.696;2023-04-19T03:54:40;10.00;99.90
17174;DHT22;8702;48.130;-1.696;2023-04-19T03:57:09;10.00;99.90
17174;DHT22;8702;48.130;-1.696;2023-04-19T03:59:37;9.90;99.90
17174;DHT22;8702;48.130;-1.696;2023-04-19T04:02:05;9.90;99.90
17174;DHT22;8702;48.130;-1.696;2023-04-19T04:04:32;9.90;99.90
17174;DHT22;8702;48.130;-1.696;2023-04-19T04:06:59;9.90;99.90
17174;DHT22;8702;48.130;-1.696;2023-04-19T04:09:28;9.90;99.90
17174;DHT22;8702;48.130;-1.696;2023-04-19T04:11:57;9.90;99.90
17174;DHT22;8702;48.130;-1.696;2023-04-19T04:14:24;9.90;99.90
17174;DHT22;8702;48.130;-1.696;2023-04-19T04:16:51;9.90;99.90
17174;DHT22;8702;48.130;-1.696;2023-04-19T04:19:18;9.90;99.90
17174;DHT22;8702;48.130;-1.696;2023-04-19T04:21:46;9.90;99.90
17174;DHT22;8702;48.130;-1.696;2023-04-19T04:24:13;9.90;99.90
17174;DHT22;8702;48.130;-1.696;2023-04-19T04:26:42;9.90;99.90
17174;DHT22;8702;48.130;-1.696;2023-04-19T04:29:11;9.90;99.90
17174;DHT22;8702;48.130;-1.696;2023-04-19T04:31:38;9.80;99.90
17174;DHT22;8702;48.130;-1.696;2023-04-19T04:34:05;9.90;99.90
17174;DHT22;8702;48.130;-1.696;2023-04-19T04:36:33;9.80;99.90
17174;DHT22;8702;48.130;-1.696;2023-04-19T04:39:01;9.70;99.90
17174;DHT22;8702;48.130;-1.696;2023-04-19T04:41:28;9.60;99.90
17174;DHT22;8702;48.130;-1.696;2023-04-19T04:43:56;9.60;99.90
17174;DHT22;8702;48.130;-1.696;2023-04-19T04:46:24;9.50;99.90
17174;DHT22;8702;48.130;-1.696;2023-04-19T04:48:51;9.60;99.90
17174;DHT22;8702;48.130;-1.696;2023-04-19T04:51:18;9.60;99.90
17174;DHT22;8702;48.130;-1.696;2023-04-19T04:53:45;9.60;99.90
17174;DHT22;8702;48.130;-1.696;2023-04-19T04:56:12;9.60;99.90
17174;DHT22;8702;48.130;-1.696;2023-04-19T04:58:39;9.70;99.90
17174;DHT22;8702;48.130;-1.696;2023-04-19T05:01:06;9.70;99.90
17174;DHT22;8702;48.130;-1.696;2023-04-19T05:03:34;9.70;99.90
17174;DHT22;8702;48.130;-1.696;2023-04-19T05:06:01;9.70;99.90
17174;DHT22;8702;48.130;-1.696;2023-04-19T05:08:28;9.60;99.90
17174;DHT22;8702;48.130;-1.696;2023-04-19T05:10:55;9.60;99.90
17174;DHT22;8702;48.130;-1.696;2023-04-19T05:13:22;9.60;99.90
17174;DHT22;8702;48.130;-1.696;2023-04-19T05:15:50;9.60;99.90
17174;DHT22;8702;48.130;-1.696;2023-04-19T05:18:17;9.50;99.90
17174;DHT22;8702;48.130;-1.696;2023-04-19T05:20:46;9.50;99.90
17174;DHT22;8702;48.130;-1.696;2023-04-19T05:23:13;9.50;99.90
17174;DHT22;8702;48.130;-1.696;2023-04-19T05:25:40;9.60;99.90
17174;DHT22;8702;48.130;-1.696;2023-04-19T05:28:07;9.60;99.90
17174;DHT22;8702;48.130;-1.696;2023-04-19T05:30:34;9.60;99.90
17174;DHT22;8702;48.130;-1.696;2023-04-19T05:33:01;9.50;99.90
17174;DHT22;8702;48.130;-1.696;2023-04-19T05:35:28;9.50;99.90
17174;DHT22;8702;48.130;-1.696;2023-04-19T05:37:56;9.40;99.90
17174;DHT22;8702;48.130;-1.696;2023-04-19T05:40:23;9.40;99.90
17174;DHT22;8702;48.130;-1.696;2023-04-19T05:42:50;9.40;99.90
17174;DHT22;8702;48.130;-1.696;2023-04-19T05:45:17;9.40;99.90
17174;DHT22;8702;48.130;-1.696;2023-04-19T05:47:44;9.50;99.90
17174;DHT22;8702;48.130;-1.696;2023-04-19T05:50:11;9.50;99.90
17174;DHT22;8702;48.130;-1.696;2023-04-19T05:52:39;9.50;99.90
17174;DHT22;8702;48.130;-1.696;2023-04-19T05:55:08;9.50;99.90
17174;DHT22;8702;48.130;-1.696;2023-04-19T05:57:35;9.50;99.90
17174;DHT22;8702;48.130;-1.696;2023-04-19T06:00:03;9.60;99.90
17174;DHT22;8702;48.130;-1.696;2023-04-19T06:02:33;9.50;99.90
17174;DHT22;8702;48.130;-1.696;2023-04-19T06:05:00;9.50;99.90
17174;DHT22;8702;48.130;-1.696;2023-04-19T06:07:28;9.60;99.90
17174;DHT22;8702;48.130;-1.696;2023-04-19T06:09:55;9.60;99.90
17174;DHT22;8702;48.130;-1.696;2023-04-19T06:12:24;9.60;99.90
17174;DHT22;8702;48.130;-1.696;2023-04-19T06:14:51;9.60;99.90
17174;DHT22;8702;48.130;-1.696;2023-04-19T06:17:19;9.70;99.90
17174;DHT22;8702;48.130;-1.696;2023-04-19T06:19:49;9.70;99.90
17174;DHT22;8702;48.130;-1.696;2023-04-19T06:22:16;9.60;99.90
17174;DHT22;8702;48.130;-1.696;2023-04-19T06:24:43;9.60;99.90
17174;DHT22;8702;48.130;-1.696;2023-04-19T06:27:10;9.70;99.90
17174;DHT22;8702;48.130;-1.696;2023-04-19T06:29:38;9.80;99.90
17174;DHT22;8702;48.130;-1.696;2023-04-19T06:32:06;9.70;99.90
17174;DHT22;8702;48.130;-1.696;2023-04-19T06:34:33;9.70;99.90
17174;DHT22;8702;48.130;-1.696;2023-04-19T06:37:00;9.80;99.90
17174;DHT22;8702;48.130;-1.696;2023-04-19T06:39:28;9.80;99.90
17174;DHT22;8702;48.130;-1.696;2023-04-19T06:41:55;9.80;99.90
17174;DHT22;8702;48.130;-1.696;2023-04-19T06:44:22;9.90;99.90
17174;DHT22;8702;48.130;-1.696;2023-04-19T06:46:50;10.00;99.90
17174;DHT22;8702;48.130;-1.696;2023-04-19T06:49:17;10.00;99.90
17174;DHT22;8702;48.130;-1.696;2023-04-19T06:51:44;10.00;99.90
17174;DHT22;8702;48.130;-1.696;2023-04-19T06:54:14;10.00;99.90
17174;DHT22;8702;48.130;-1.696;2023-04-19T06:56:42;10.10;99.90
17174;DHT22;8702;48.130;-1.696;2023-04-19T06:59:13;10.10;99.90
17174;DHT22;8702;48.130;-1.696;2023-04-19T07:01:41;10.10;99.90
17174;DHT22;8702;48.130;-1.696;2023-04-19T07:04:10;10.10;99.90
17174;DHT22;8702;48.130;-1.696;2023-04-19T07:06:37;10.20;99.90
17174;DHT22;8702;48.130;-1.696;2023-04-19T07:09:05;10.20;99.90
17174;DHT22;8702;48.130;-1.696;2023-04-19T07:11:33;10.20;99.90
17174;DHT22;8702;48.130;-1.696;2023-04-19T07:14:00;10.20;99.90
17174;DHT22;8702;48.130;-1.696;2023-04-19T07:16:27;10.30;99.90
17174;DHT22;8702;48.130;-1.696;2023-04-19T07:18:54;10.40;99.90
17174;DHT22;8702;48.130;-1.696;2023-04-19T07:21:23;10.40;99.90
17174;DHT22;8702;48.130;-1.696;2023-04-19T07:23:53;10.40;99.90
17174;DHT22;8702;48.130;-1.696;2023-04-19T07:26:20;10.40;99.90
17174;DHT22;8702;48.130;-1.696;2023-04-19T07:28:47;10.40;99.90
17174;DHT22;8702;48.130;-1.696;2023-04-19T07:31:14;10.50;99.90
17174;DHT22;8702;48.130;-1.696;2023-04-19T07:33:42;10.60;99.90
17174;DHT22;8702;48.130;-1.696;2023-04-19T07:36:09;10.60;99.90
17174;DHT22;8702;48.130;-1.696;2023-04-19T07:38:38;10.80;99.90
17174;DHT22;8702;48.130;-1.696;2023-04-19T07:41:05;10.90;99.90
17174;DHT22;8702;48.130;-1.696;2023-04-19T07:43:33;11.00;99.90
17174;DHT22;8702;48.130;-1.696;2023-04-19T07:46:00;11.10;99.90
17174;DHT22;8702;48.130;-1.696;2023-04-19T07:48:27;11.10;99.90
17174;DHT22;8702;48.130;-1.696;2023-04-19T07:50:54;11.30;99.90
17174;DHT22;8702;48.130;-1.696;2023-04-19T07:53:21;11.30;99.90
17174;DHT22;8702;48.130;-1.696;2023-04-19T07:55:49;11.40;99.90
17174;DHT22;8702;48.130;-1.696;2023-04-19T07:58:17;11.50;99.90
17174;DHT22;8702;48.130;-1.696;2023-04-19T08:00:44;11.50;99.90
17174;DHT22;8702;48.130;-1.696;2023-04-19T08:03:11;11.70;99.90
17174;DHT22;8702;48.130;-1.696;2023-04-19T08:05:38;11.70;99.90
17174;DHT22;8702;48.130;-1.696;2023-04-19T08:08:05;11.80;99.90
17174;DHT22;8702;48.130;-1.696;2023-04-19T08:10:33;11.90;99.90
17174;DHT22;8702;48.130;-1.696;2023-04-19T08:13:01;11.90;99.90
17174;DHT22;8702;48.130;-1.696;2023-04-19T08:15:28;12.00;99.90
17174;DHT22;8702;48.130;-1.696;2023-04-19T08:17:55;11.90;99.90
17174;DHT22;8702;48.130;-1.696;2023-04-19T08:20:22;11.90;99.90
17174;DHT22;8702;48.130;-1.696;2023-04-19T08:22:50;12.00;99.90
17174;DHT22;8702;48.130;-1.696;2023-04-19T08:25:17;12.10;99.90
17174;DHT22;8702;48.130;-1.696;2023-04-19T08:27:43;12.10;99.90
17174;DHT22;8702;48.130;-1.696;2023-04-19T08:30:12;12.20;99.90
17174;DHT22;8702;48.130;-1.696;2023-04-19T08:32:39;12.30;99.90
17174;DHT22;8702;48.130;-1.696;2023-04-19T08:35:07;12.20;99.90
17174;DHT22;8702;48.130;-1.696;2023-04-19T08:37:34;12.20;99.90
17174;DHT22;8702;48.130;-1.696;2023-04-19T08:40:01;12.20;99.90
17174;DHT22;8702;48.130;-1.696;2023-04-19T08:42:28;12.30;99.90
17174;DHT22;8702;48.130;-1.696;2023-04-19T08:45:00;12.30;99.90
17174;DHT22;8702;48.130;-1.696;2023-04-19T08:47:32;12.30;99.90
17174;DHT22;8702;48.130;-1.696;2023-04-19T08:50:00;12.30;99.90
17174;DHT22;8702;48.130;-1.696;2023-04-19T08:52:27;12.40;99.90
17174;DHT22;8702;48.130;-1.696;2023-04-19T08:54:56;12.50;99.90
17174;DHT22;8702;48.130;-1.696;2023-04-19T08:57:23;12.60;99.90
17174;DHT22;8702;48.130;-1.696;2023-04-19T08:59:50;12.60;99.90
17174;DHT22;8702;48.130;-1.696;2023-04-19T09:02:20;12.70;99.90
17174;DHT22;8702;48.130;-1.696;2023-04-19T09:04:48;12.70;99.90
17174;DHT22;8702;48.130;-1.696;2023-04-19T09:07:22;12.80;99.90
17174;DHT22;8702;48.130;-1.696;2023-04-19T09:10:04;12.90;99.90
17174;DHT22;8702;48.130;-1.696;2023-04-19T09:12:32;12.90;99.90
17174;DHT22;8702;48.130;-1.696;2023-04-19T09:15:00;13.00;99.90
17174;DHT22;8702;48.130;-1.696;2023-04-19T09:17:29;13.00;99.90
17174;DHT22;8702;48.130;-1.696;2023-04-19T09:19:58;13.10;99.90
17174;DHT22;8702;48.130;-1.696;2023-04-19T09:22:25;13.10;99.90
17174;DHT22;8702;48.130;-1.696;2023-04-19T09:24:52;13.10;99.90
17174;DHT22;8702;48.130;-1.696;2023-04-19T09:27:26;13.20;99.90
17174;DHT22;8702;48.130;-1.696;2023-04-19T09:29:54;13.30;99.90
17174;DHT22;8702;48.130;-1.696;2023-04-19T09:32:21;13.30;99.90
17174;DHT22;8702;48.130;-1.696;2023-04-19T09:34:53;13.40;99.90
17174;DHT22;8702;48.130;-1.696;2023-04-19T09:37:22;13.50;99.90
17174;DHT22;8702;48.130;-1.696;2023-04-19T09:39:49;13.60;99.90
17174;DHT22;8702;48.130;-1.696;2023-04-19T09:42:17;13.60;99.90
17174;DHT22;8702;48.130;-1.696;2023-04-19T09:44:56;13.70;99.90
17174;DHT22;8702;48.130;-1.696;2023-04-19T09:47:25;13.80;99.90
17174;DHT22;8702;48.130;-1.696;2023-04-19T09:50:08;13.80;99.90
17174;DHT22;8702;48.130;-1.696;2023-04-19T09:52:37;13.80;99.90
17174;DHT22;8702;48.130;-1.696;2023-04-19T09:55:05;13.90;99.90
17174;DHT22;8702;48.130;-1.696;2023-04-19T09:57:33;14.00;99.90
17174;DHT22;8702;48.130;-1.696;2023-04-19T10:00:01;14.10;99.90
17174;DHT22;8702;48.130;-1.696;2023-04-19T10:02:31;14.20;99.90
17174;DHT22;8702;48.130;-1.696;2023-04-19T10:04:59;14.20;99.90
17174;DHT22;8702;48.130;-1.696;2023-04-19T10:07:27;14.20;99.90
17174;DHT22;8702;48.130;-1.696;2023-04-19T10:09:57;14.30;99.90
17174;DHT22;8702;48.130;-1.696;2023-04-19T10:12:25;14.30;99.90
17174;DHT22;8702;48.130;-1.696;2023-04-19T10:14:54;14.30;99.90
17174;DHT22;8702;48.130;-1.696;2023-04-19T10:17:22;14.40;99.90
17174;DHT22;8702;48.130;-1.696;2023-04-19T10:19:54;14.50;99.90
17174;DHT22;8702;48.130;-1.696;2023-04-19T10:22:22;14.50;99.90
17174;DHT22;8702;48.130;-1.696;2023-04-19T10:25:11;14.70;99.90
17174;DHT22;8702;48.130;-1.696;2023-04-19T10:27:39;14.80;99.90
17174;DHT22;8702;48.130;-1.696;2023-04-19T10:30:16;14.90;99.90
17174;DHT22;8702;48.130;-1.696;2023-04-19T10:32:45;15.00;99.90
17174;DHT22;8702;48.130;-1.696;2023-04-19T10:35:17;15.00;99.90
17174;DHT22;8702;48.130;-1.696;2023-04-19T10:38:04;15.00;99.90
17174;DHT22;8702;48.130;-1.696;2023-04-19T10:40:55;15.00;99.90
17174;DHT22;8702;48.130;-1.696;2023-04-19T10:43:22;15.10;99.90
17174;DHT22;8702;48.130;-1.696;2023-04-19T10:45:50;15.10;99.90
17174;DHT22;8702;48.130;-1.696;2023-04-19T10:48:48;15.30;99.90
17174;DHT22;8702;48.130;-1.696;2023-04-19T10:51:19;15.40;99.90
17174;DHT22;8702;48.130;-1.696;2023-04-19T10:53:51;15.50;99.90
17174;DHT22;8702;48.130;-1.696;2023-04-19T10:56:22;15.60;99.90
17174;DHT22;8702;48.130;-1.696;2023-04-19T10:59:12;15.70;99.90
17174;DHT22;8702;48.130;-1.696;2023-04-19T11:01:50;15.60;99.90
17174;DHT22;8702;48.130;-1.696;2023-04-19T11:04:19;15.70;99.90
17174;DHT22;8702;48.130;-1.696;2023-04-19T11:06:59;15.80;99.90
17174;DHT22;8702;48.130;-1.696;2023-04-19T11:09:28;15.90;99.90
17174;DHT22;8702;48.130;-1.696;2023-04-19T11:11:59;16.00;99.90
17174;DHT22;8702;48.130;-1.696;2023-04-19T11:14:29;16.10;99.90
17174;DHT22;8702;48.130;-1.696;2023-04-19T11:16:57;16.20;99.90
17174;DHT22;8702;48.130;-1.696;2023-04-19T11:19:25;16.30;99.90
17174;DHT22;8702;48.130;-1.696;2023-04-19T11:21:52;16.20;99.90
17174;DHT22;8702;48.130;-1.696;2023-04-19T11:24:23;16.20;99.90
17174;DHT22;8702;48.130;-1.696;2023-04-19T11:26:49;16.10;99.90
17174;DHT22;8702;48.130;-1.696;2023-04-19T11:29:18;16.20;99.90
17174;DHT22;8702;48.130;-1.696;2023-04-19T11:31:46;16.20;99.90
17174;DHT22;8702;48.130;-1.696;2023-04-19T11:34:13;16.40;99.90
17174;DHT22;8702;48.130;-1.696;2023-04-19T11:36:47;16.50;99.90
17174;DHT22;8702;48.130;-1.696;2023-04-19T11:39:14;16.50;99.90
17174;DHT22;8702;48.130;-1.696;2023-04-19T11:41:41;16.50;99.90
17174;DHT22;8702;48.130;-1.696;2023-04-19T11:44:15;16.60;99.90
17174;DHT22;8702;48.130;-1.696;2023-04-19T11:46:57;16.60;99.90
17174;DHT22;8702;48.130;-1.696;2023-04-19T11:49:28;16.80;99.90
17174;DHT22;8702;48.130;-1.696;2023-04-19T11:51:59;16.90;99.90
17174;DHT22;8702;48.130;-1.696;2023-04-19T11:54:26;17.00;99.90
17174;DHT22;8702;48.130;-1.696;2023-04-19T11:57:01;17.20;99.90
17174;DHT22;8702;48.130;-1.696;2023-04-19T11:59:30;17.30;99.90
17174;DHT22;8702;48.130;-1.696;2023-04-19T12:02:05;17.40;99.90
17174;DHT22;8702;48.130;-1.696;2023-04-19T12:04:33;17.50;99.90
17174;DHT22;8702;48.130;-1.696;2023-04-19T12:07:02;17.40;99.90
17174;DHT22;8702;48.130;-1.696;2023-04-19T12:09:32;17.40;99.90
17174;DHT22;8702;48.130;-1.696;2023-04-19T12:12:00;17.50;99.90
17174;DHT22;8702;48.130;-1.696;2023-04-19T12:14:27;17.50;99.90
17174;DHT22;8702;48.130;-1.696;2023-04-19T12:17:09;17.50;99.90
17174;DHT22;8702;48.130;-1.696;2023-04-19T12:19:41;17.60;99.90
17174;DHT22;8702;48.130;-1.696;2023-04-19T12:22:10;17.60;99.90
17174;DHT22;8702;48.130;-1.696;2023-04-19T12:24:37;17.70;99.90
17174;DHT22;8702;48.130;-1.696;2023-04-19T12:27:05;17.90;99.90
17174;DHT22;8702;48.130;-1.696;2023-04-19T12:29:32;18.00;99.90
17174;DHT22;8702;48.130;-1.696;2023-04-19T12:32:00;17.90;99.90
17174;DHT22;8702;48.130;-1.696;2023-04-19T12:34:28;18.00;99.90
17174;DHT22;8702;48.130;-1.696;2023-04-19T12:36:56;18.00;99.90
17174;DHT22;8702;48.130;-1.696;2023-04-19T12:39:22;18.00;99.90
17174;DHT22;8702;48.130;-1.696;2023-04-19T12:41:49;18.10;99.90
17174;DHT22;8702;48.130;-1.696;2023-04-19T12:44:16;18.20;99.90
17174;DHT22;8702;48.130;-1.696;2023-04-19T12:46:43;18.30;99.90
17174;DHT22;8702;48.130;-1.696;2023-04-19T12:49:10;18.30;99.90
17174;DHT22;8702;48.130;-1.696;2023-04-19T12:51:38;18.40;99.90
17174;DHT22;8702;48.130;-1.696;2023-04-19T12:54:07;18.60;99.90
17174;DHT22;8702;48.130;-1.696;2023-04-19T12:56:34;18.70;99.90
17174;DHT22;8702;48.130;-1.696;2023-04-19T12:59:01;18.80;99.90
17174;DHT22;8702;48.130;-1.696;2023-04-19T13:01:28;18.80;99.90
17174;DHT22;8702;48.130;-1.696;2023-04-19T13:03:55;18.80;99.90
17174;DHT22;8702;48.130;-1.696;2023-04-19T13:08:50;18.70;99.90
17174;DHT22;8702;48.130;-1.696;2023-04-19T13:11:17;18.90;99.90
17174;DHT22;8702;48.130;-1.696;2023-04-19T13:13:51;19.00;99.90
17174;DHT22;8702;48.130;-1.696;2023-04-19T13:16:20;19.00;99.90
17174;DHT22;8702;48.130;-1.696;2023-04-19T13:18:48;19.10;99.90
17174;DHT22;8702;48.130;-1.696;2023-04-19T13:21:15;19.10;99.90
17174;DHT22;8702;48.130;-1.696;2023-04-19T13:23:42;19.10;99.90
17174;DHT22;8702;48.130;-1.696;2023-04-19T13:26:11;19.10;99.90
17174;DHT22;8702;48.130;-1.696;2023-04-19T13:28:40;19.20;99.90
17174;DHT22;8702;48.130;-1.696;2023-04-19T13:31:07;19.20;99.90
17174;DHT22;8702;48.130;-1.696;2023-04-19T13:33:37;19.30;99.90
17174;DHT22;8702;48.130;-1.696;2023-04-19T13:36:05;19.30;99.90
17174;DHT22;8702;48.130;-1.696;2023-04-19T13:38:32;19.40;99.70
17174;DHT22;8702;48.130;-1.696;2023-04-19T13:41:00;19.50;99.20
17174;DHT22;8702;48.130;-1.696;2023-04-19T13:43:29;19.60;99.90
17174;DHT22;8702;48.130;-1.696;2023-04-19T13:45:56;19.70;99.90
17174;DHT22;8702;48.130;-1.696;2023-04-19T13:48:23;19.80;99.50
17174;DHT22;8702;48.130;-1.696;2023-04-19T13:50:53;19.90;99.20
17174;DHT22;8702;48.130;-1.696;2023-04-19T13:53:20;19.90;98.90
17174;DHT22;8702;48.130;-1.696;2023-04-19T13:55:47;20.00;98.90
17174;DHT22;8702;48.130;-1.696;2023-04-19T13:58:14;20.00;98.10
17174;DHT22;8702;48.130;-1.696;2023-04-19T14:00:43;20.00;98.10
17174;DHT22;8702;48.130;-1.696;2023-04-19T14:03:10;20.20;98.40
17174;DHT22;8702;48.130;-1.696;2023-04-19T14:05:37;20.20;97.80
17174;DHT22;8702;48.130;-1.696;2023-04-19T14:08:04;20.40;97.60
17174;DHT22;8702;48.130;-1.696;2023-04-19T14:10:31;20.40;97.60
17174;DHT22;8702;48.130;-1.696;2023-04-19T14:12:58;20.60;97.30
17174;DHT22;8702;48.130;-1.696;2023-04-19T14:15:25;20.70;97.70
17174;DHT22;8702;48.130;-1.696;2023-04-19T14:17:53;20.90;96.70
17174;DHT22;8702;48.130;-1.696;2023-04-19T14:20:20;20.90;96.60
17174;DHT22;8702;48.130;-1.696;2023-04-19T14:22:47;20.80;95.70
17174;DHT22;8702;48.130;-1.696;2023-04-19T14:25:14;20.80;96.90
17174;DHT22;8702;48.130;-1.696;2023-04-19T14:27:42;20.90;96.40
17174;DHT22;8702;48.130;-1.696;2023-04-19T14:30:10;21.10;96.50
17174;DHT22;8702;48.130;-1.696;2023-04-19T14:32:37;21.20;96.00
17174;DHT22;8702;48.130;-1.696;2023-04-19T14:35:06;21.10;96.70
17174;DHT22;8702;48.130;-1.696;2023-04-19T14:37:36;21.20;96.60
17174;DHT22;8702;48.130;-1.696;2023-04-19T14:40:04;21.20;96.30
17174;DHT22;8702;48.130;-1.696;2023-04-19T14:42:31;21.30;96.10
17174;DHT22;8702;48.130;-1.696;2023-04-19T14:44:58;21.40;96.30
17174;DHT22;8702;48.130;-1.696;2023-04-19T14:47:25;21.60;95.50
17174;DHT22;8702;48.130;-1.696;2023-04-19T14:49:52;21.70;95.10
17174;DHT22;8702;48.130;-1.696;2023-04-19T14:52:20;22.00;95.20
17174;DHT22;8702;48.130;-1.696;2023-04-19T14:54:47;22.00;94.50
17174;DHT22;8702;48.130;-1.696;2023-04-19T14:57:14;21.90;94.30
17174;DHT22;8702;48.130;-1.696;2023-04-19T14:59:41;21.80;94.90
17174;DHT22;8702;48.130;-1.696;2023-04-19T15:02:08;21.70;95.00
17174;DHT22;8702;48.130;-1.696;2023-04-19T15:07:05;21.40;94.20
17174;DHT22;8702;48.130;-1.696;2023-04-19T15:09:33;21.40;94.80
17174;DHT22;8702;48.130;-1.696;2023-04-19T15:12:00;21.30;95.00
17174;DHT22;8702;48.130;-1.696;2023-04-19T15:14:27;21.30;94.90
17174;DHT22;8702;48.130;-1.696;2023-04-19T15:16:54;21.20;95.00
17174;DHT22;8702;48.130;-1.696;2023-04-19T15:19:21;21.20;94.70
17174;DHT22;8702;48.130;-1.696;2023-04-19T15:21:48;21.10;98.20
17174;DHT22;8702;48.130;-1.696;2023-04-19T15:24:15;21.20;95.60
17174;DHT22;8702;48.130;-1.696;2023-04-19T15:26:43;21.20;95.30
17174;DHT22;8702;48.130;-1.696;2023-04-19T15:29:10;21.20;94.60
17174;DHT22;8702;48.130;-1.696;2023-04-19T15:31:37;21.40;94.20
17174;DHT22;8702;48.130;-1.696;2023-04-19T15:34:04;21.70;94.60
17174;DHT22;8702;48.130;-1.696;2023-04-19T15:36:31;22.00;94.00
17174;DHT22;8702;48.130;-1.696;2023-04-19T15:38:58;22.00;94.00
17174;DHT22;8702;48.130;-1.696;2023-04-19T15:41:25;21.90;93.80
17174;DHT22;8702;48.130;-1.696;2023-04-19T15:43:53;21.70;93.80
17174;DHT22;8702;48.130;-1.696;2023-04-19T15:46:20;21.50;93.70
17174;DHT22;8702;48.130;-1.696;2023-04-19T15:48:48;21.50;94.10